sensor_id;sensor_type;location;lat;lon;timestamp;pressure;altitude;pressure_sealevel;temperature;humidity
25430;BME280;13360;48.152;-1.788;2023-09-18T00:00:15;102094.78;;;21.14;100.00
25430;BME280;13360;48.152;-1.788;2023-09-18T00:02:40;102097.66;;;21.06;100.00
25430;BME280;13360;48.152;-1.788;2023-09-18T00:05:06;102084.44;;;20.97;100.00
25430;BME280;13360;48.152;-1.788;2023-09-18T00:07:31;102071.41;;;20.93;100.00
25430;BME280;13360;48.152;-1.788;2023-09-18T00:09:56;102075.69;;;20.90;100.00
25430;BME280;13360;48.152;-1.788;2023-09-18T00:12:22;102069.59;;;20.88;100.00
25430;BME280;13360;48.152;-1.788;2023-09-18T00:14:47;102066.31;;;20.86;100.00
25430;BME280;13360;48.152;-1.788;2023-09-18T00:17:13;102084.31;;;20.85;100.00
25430;BME280;13360;48.152;-1.788;2023-09-18T00:19:38;102086.28;;;20.85;100.00
25430;BME280;13360;48.152;-1.788;2023-09-18T00:22:03;102085.00;;;20.82;100.00
25430;BME280;13360;48.152;-1.788;2023-09-18T00:24:28;102072.41;;;20.80;100.00
25430;BME280;13360;48.152;-1.788;2023-09-18T00:26:54;102069.13;;;20.78;100.00
25430;BME280;13360;48.152;-1.788;2023-09-18T00:29:19;102063.84;;;20.76;100.00
25430;BME280;13360;48.152;-1.788;2023-09-18T00:31:44;102059.22;;;20.72;100.00
25430;BME280;13360;48.152;-1.788;2023-09-18T00:34:10;102062.38;;;20.70;100.00
25430;BME280;13360;48.152;-1.788;2023-09-18T00:36:35;102056.59;;;20.66;100.00
25430;BME280;13360;48.152;-1.788;2023-09-18T00:39:00;102061.72;;;20.64;100.00
25430;BME280;13360;48.152;-1.788;2023-09-18T00:41:25;102053.94;;;20.61;100.00
25430;BME280;13360;48.152;-1.788;2023-09-18T00:43:50;102060.25;;;20.58;100.00
25430;BME280;13360;48.152;-1.788;2023-09-18T00:46:16;102064.19;;;20.57;100.00
25430;BME280;13360;48.152;-1.788;2023-09-18T00:48:41;102072.97;;;20.56;100.00
25430;BME280;13360;48.152;-1.788;2023-09-18T00:51:07;102075.28;;;20.54;100.00
25430;BME280;13360;48.152;-1.788;2023-09-18T00:53:33;102072.81;;;20.52;100.00
25430;BME280;13360;48.152;-1.788;2023-09-18T00:55:59;102083.22;;;20.52;100.00
25430;BME280;13360;48.152;-1.788;2023-09-18T00:58:25;102088.84;;;20.43;100.00
25430;BME280;13360;48.152;-1.788;2023-09-18T01:00:51;102098.72;;;20.40;100.00
25430;BME280;13360;48.152;-1.788;2023-09-18T01:03:16;102107.78;;;20.37;100.00
25430;BME280;13360;48.152;-1.788;2023-09-18T01:05:43;102102.88;;;20.43;100.00
25430;BME280;13360;48.152;-1.788;2023-09-18T01:08:08;102092.81;;;20.42;100.00
25430;BME280;13360;48.152;-1.788;2023-09-18T01:10:36;102091.66;;;20.43;100.00
25430;BME280;13360;48.152;-1.788;2023-09-18T01:13:05;102074.59;;;20.39;100.00
25430;BME280;13360;48.152;-1.788;2023-09-18T01:15:39;102073.28;;;20.37;100.00
25430;BME280;13360;48.152;-1.788;2023-09-18T01:18:09;102073.59;;;20.35;100.00
25430;BME280;13360;48.152;-1.788;2023-09-18T01:20:34;102079.56;;;20.34;100.00
25430;BME280;13360;48.152;-1.788;2023-09-18T01:23:00;102097.69;;;20.36;100.00
25430;BME280;13360;48.152;-1.788;2023-09-18T01:25:25;102124.28;;;20.39;100.00
25430;BME280;13360;48.152;-1.788;2023-09-18T01:27:50;102136.06;;;20.41;100.00
25430;BME280;13360;48.152;-1.788;2023-09-18T01:30:16;102139.03;;;20.45;100.00
25430;BME280;13360;48.152;-1.788;2023-09-18T01:32:42;102139.34;;;20.43;100.00
25430;BME280;13360;48.152;-1.788;2023-09-18T01:35:08;102139.34;;;20.43;100.00
25430;BME280;13360;48.152;-1.788;2023-09-18T01:37:34;102142.75;;;20.40;100.00
25430;BME280;13360;48.152;-1.788;2023-09-18T01:40:01;102148.22;;;20.36;100.00
25430;BME280;13360;48.152;-1.788;2023-09-18T01:42:27;102148.03;;;20.33;100.00
25430;BME280;13360;48.152;-1.788;2023-09-18T01:44:53;102160.91;;;20.34;100.00
25430;BME280;13360;48.152;-1.788;2023-09-18T01:47:18;102173.13;;;20.38;100.00
25430;BME280;13360;48.152;-1.788;2023-09-18T01:49:44;102168.34;;;20.38;100.00
25430;BME280;13360;48.152;-1.788;2023-09-18T01:52:11;102182.91;;;20.40;100.00
25430;BME280;13360;48.152;-1.788;2023-09-18T01:54:36;102167.53;;;20.38;100.00
25430;BME280;13360;48.152;-1.788;2023-09-18T01:57:02;102169.84;;;20.36;100.00
25430;BME280;13360;48.152;-1.788;2023-09-18T01:59:27;102190.13;;;20.33;100.00
25430;BME280;13360;48.152;-1.788;2023-09-18T02:01:53;102211.44;;;20.34;100.00
25430;BME280;13360;48.152;-1.788;2023-09-18T02:04:21;102222.16;;;20.32;100.00
25430;BME280;13360;48.152;-1.788;2023-09-18T02:06:47;102225.28;;;20.30;100.00
25430;BME280;13360;48.152;-1.788;2023-09-18T02:09:13;102252.19;;;20.31;100.00
25430;BME280;13360;48.152;-1.788;2023-09-18T02:11:39;102245.75;;;20.31;100.00
25430;BME280;13360;48.152;-1.788;2023-09-18T02:14:04;102253.69;;;20.29;100.00
25430;BME280;13360;48.152;-1.788;2023-09-18T02:16:30;102259.28;;;20.29;100.00
25430;BME280;13360;48.152;-1.788;2023-09-18T02:18:55;102262.75;;;20.26;100.00
25430;BME280;13360;48.152;-1.788;2023-09-18T02:21:21;102262.25;;;20.24;100.00
25430;BME280;13360;48.152;-1.788;2023-09-18T02:23:50;102255.63;;;20.20;100.00
25430;BME280;13360;48.152;-1.788;2023-09-18T02:26:16;102261.22;;;20.20;100.00
25430;BME280;13360;48.152;-1.788;2023-09-18T02:28:42;102268.00;;;20.19;100.00
25430;BME280;13360;48.152;-1.788;2023-09-18T02:31:07;102248.69;;;20.17;100.00
25430;BME280;13360;48.152;-1.788;2023-09-18T02:33:33;102243.91;;;20.18;100.00
25430;BME280;13360;48.152;-1.788;2023-09-18T02:35:58;102234.97;;;20.16;100.00
25430;BME280;13360;48.152;-1.788;2023-09-18T02:38:23;102228.88;;;20.14;100.00
25430;BME280;13360;48.152;-1.788;2023-09-18T02:40:49;102218.31;;;20.10;100.00
25430;BME280;13360;48.152;-1.788;2023-09-18T02:43:14;102206.91;;;20.07;100.00
25430;BME280;13360;48.152;-1.788;2023-09-18T02:45:40;102192.72;;;20.03;100.00
25430;BME280;13360;48.152;-1.788;2023-09-18T02:48:05;102177.38;;;20.01;100.00
25430;BME280;13360;48.152;-1.788;2023-09-18T02:50:30;102156.09;;;20.00;100.00
25430;BME280;13360;48.152;-1.788;2023-09-18T02:52:56;102149.97;;;19.98;100.00
25430;BME280;13360;48.152;-1.788;2023-09-18T02:55:21;102139.06;;;19.96;100.00
25430;BME280;13360;48.152;-1.788;2023-09-18T02:57:46;102150.28;;;19.96;100.00
25430;BME280;13360;48.152;-1.788;2023-09-18T03:00:11;102162.66;;;19.95;100.00
25430;BME280;13360;48.152;-1.788;2023-09-18T03:02:37;102164.66;;;19.95;100.00
25430;BME280;13360;48.152;-1.788;2023-09-18T03:05:02;102185.44;;;19.94;100.00
25430;BME280;13360;48.152;-1.788;2023-09-18T03:07:28;102210.34;;;19.95;100.00
25430;BME280;13360;48.152;-1.788;2023-09-18T03:09:55;102223.69;;;19.98;100.00
25430;BME280;13360;48.152;-1.788;2023-09-18T03:12:21;102246.66;;;20.00;100.00
25430;BME280;13360;48.152;-1.788;2023-09-18T03:14:47;102266.81;;;20.02;100.00
25430;BME280;13360;48.152;-1.788;2023-09-18T03:17:12;102285.28;;;20.03;100.00
25430;BME280;13360;48.152;-1.788;2023-09-18T03:19:37;102295.84;;;20.06;100.00
25430;BME280;13360;48.152;-1.788;2023-09-18T03:22:03;102319.94;;;20.07;100.00
25430;BME280;13360;48.152;-1.788;2023-09-18T03:24:28;102319.13;;;20.07;100.00
25430;BME280;13360;48.152;-1.788;2023-09-18T03:26:53;102320.44;;;20.09;100.00
25430;BME280;13360;48.152;-1.788;2023-09-18T03:29:18;102336.78;;;20.07;100.00
25430;BME280;13360;48.152;-1.788;2023-09-18T03:31:44;102355.06;;;20.05;100.00
25430;BME280;13360;48.152;-1.788;2023-09-18T03:34:09;102373.50;;;19.97;100.00
25430;BME280;13360;48.152;-1.788;2023-09-18T03:36:34;102393.13;;;19.97;100.00
25430;BME280;13360;48.152;-1.788;2023-09-18T03:39:01;102397.72;;;19.93;100.00
25430;BME280;13360;48.152;-1.788;2023-09-18T03:41:26;102427.06;;;19.87;100.00
25430;BME280;13360;48.152;-1.788;2023-09-18T03:43:51;102445.53;;;19.88;100.00
25430;BME280;13360;48.152;-1.788;2023-09-18T03:46:17;102459.03;;;19.86;100.00
25430;BME280;13360;48.152;-1.788;2023-09-18T03:48:42;102474.84;;;19.82;100.00
25430;BME280;13360;48.152;-1.788;2023-09-18T03:51:07;102482.44;;;19.82;100.00
25430;BME280;13360;48.152;-1.788;2023-09-18T03:53:37;102495.63;;;19.81;100.00
25430;BME280;13360;48.152;-1.788;2023-09-18T03:56:03;102517.41;;;19.84;100.00
25430;BME280;13360;48.152;-1.788;2023-09-18T03:58:28;102540.88;;;19.88;100.00
25430;BME280;13360;48.152;-1.788;2023-09-18T04:00:53;102552.59;;;19.90;100.00
25430;BME280;13360;48.152;-1.788;2023-09-18T04:03:18;102569.94;;;19.92;100.00
25430;BME280;13360;48.152;-1.788;2023-09-18T04:05:44;102570.75;;;19.93;100.00
25430;BME280;13360;48.152;-1.788;2023-09-18T04:08:09;102589.56;;;19.92;100.00
25430;BME280;13360;48.152;-1.788;2023-09-18T04:10:36;102599.63;;;19.93;100.00
25430;BME280;13360;48.152;-1.788;2023-09-18T04:13:01;102604.09;;;19.94;100.00
25430;BME280;13360;48.152;-1.788;2023-09-18T04:15:26;102621.44;;;19.96;100.00
25430;BME280;13360;48.152;-1.788;2023-09-18T04:17:52;102623.72;;;19.94;100.00
25430;BME280;13360;48.152;-1.788;2023-09-18T04:20:18;102655.72;;;19.93;100.00
25430;BME280;13360;48.152;-1.788;2023-09-18T04:22:44;102666.94;;;19.93;100.00
25430;BME280;13360;48.152;-1.788;2023-09-18T04:25:10;102672.22;;;19.95;100.00
25430;BME280;13360;48.152;-1.788;2023-09-18T04:27:36;102675.03;;;19.95;100.00
25430;BME280;13360;48.152;-1.788;2023-09-18T04:30:01;102671.41;;;19.94;100.00
25430;BME280;13360;48.152;-1.788;2023-09-18T04:32:29;102673.19;;;19.90;100.00
25430;BME280;13360;48.152;-1.788;2023-09-18T04:34:54;102668.22;;;19.87;100.00
25430;BME280;13360;48.152;-1.788;2023-09-18T04:37:19;102665.50;;;19.82;100.00
25430;BME280;13360;48.152;-1.788;2023-09-18T04:39:45;102675.38;;;19.79;100.00
25430;BME280;13360;48.152;-1.788;2023-09-18T04:42:10;102681.28;;;19.78;100.00
25430;BME280;13360;48.152;-1.788;2023-09-18T04:44:35;102671.22;;;19.77;100.00
25430;BME280;13360;48.152;-1.788;2023-09-18T04:47:00;102686.88;;;19.78;100.00
25430;BME280;13360;48.152;-1.788;2023-09-18T04:49:25;102688.03;;;19.77;100.00
25430;BME280;13360;48.152;-1.788;2023-09-18T04:51:51;102676.81;;;19.77;100.00
25430;BME280;13360;48.152;-1.788;2023-09-18T04:54:16;102669.03;;;19.74;100.00
25430;BME280;13360;48.152;-1.788;2023-09-18T04:56:41;102668.22;;;19.73;100.00
25430;BME280;13360;48.152;-1.788;2023-09-18T04:59:06;102665.19;;;19.70;100.00
25430;BME280;13360;48.152;-1.788;2023-09-18T05:01:32;102676.94;;;19.72;100.00
25430;BME280;13360;48.152;-1.788;2023-09-18T05:03:57;102674.13;;;19.72;100.00
25430;BME280;13360;48.152;-1.788;2023-09-18T05:06:22;102672.16;;;19.72;100.00
25430;BME280;13360;48.152;-1.788;2023-09-18T05:08:48;102658.25;;;19.67;100.00
25430;BME280;13360;48.152;-1.788;2023-09-18T05:11:13;102656.91;;;19.65;100.00
25430;BME280;13360;48.152;-1.788;2023-09-18T05:13:38;102663.34;;;19.65;100.00
25430;BME280;13360;48.152;-1.788;2023-09-18T05:16:03;102675.69;;;19.64;100.00
25430;BME280;13360;48.152;-1.788;2023-09-18T05:18:29;102681.31;;;19.64;100.00
25430;BME280;13360;48.152;-1.788;2023-09-18T05:20:54;102671.25;;;19.63;100.00
25430;BME280;13360;48.152;-1.788;2023-09-18T05:23:19;102673.22;;;19.63;100.00
25430;BME280;13360;48.152;-1.788;2023-09-18T05:25:44;102667.59;;;19.63;100.00
25430;BME280;13360;48.152;-1.788;2023-09-18T05:28:10;102668.75;;;19.62;100.00
25430;BME280;13360;48.152;-1.788;2023-09-18T05:30:36;102659.81;;;19.60;100.00
25430;BME280;13360;48.152;-1.788;2023-09-18T05:33:03;102669.56;;;19.62;100.00
25430;BME280;13360;48.152;-1.788;2023-09-18T05:35:33;102674.03;;;19.63;100.00
25430;BME280;13360;48.152;-1.788;2023-09-18T05:37:58;102670.09;;;19.64;100.00
25430;BME280;13360;48.152;-1.788;2023-09-18T05:40:24;102664.19;;;19.66;100.00
25430;BME280;13360;48.152;-1.788;2023-09-18T05:42:53;102647.34;;;19.66;100.00
25430;BME280;13360;48.152;-1.788;2023-09-18T05:45:19;102659.41;;;19.66;100.00
25430;BME280;13360;48.152;-1.788;2023-09-18T05:47:44;102661.38;;;19.66;100.00
25430;BME280;13360;48.152;-1.788;2023-09-18T05:50:10;102649.00;;;19.67;100.00
25430;BME280;13360;48.152;-1.788;2023-09-18T05:52:39;102648.69;;;19.68;100.00
25430;BME280;13360;48.152;-1.788;2023-09-18T05:55:05;102659.59;;;19.70;100.00
25430;BME280;13360;48.152;-1.788;2023-09-18T05:57:31;102675.78;;;19.73;100.00
25430;BME280;13360;48.152;-1.788;2023-09-18T05:59:57;102667.38;;;19.73;100.00
25430;BME280;13360;48.152;-1.788;2023-09-18T06:02:22;102671.84;;;19.74;100.00
25430;BME280;13360;48.152;-1.788;2023-09-18T06:04:48;102686.38;;;19.76;100.00
25430;BME280;13360;48.152;-1.788;2023-09-18T06:07:13;102684.19;;;19.73;100.00
25430;BME280;13360;48.152;-1.788;2023-09-18T06:09:38;102693.75;;;19.72;100.00
25430;BME280;13360;48.152;-1.788;2023-09-18T06:12:04;102713.06;;;19.73;100.00
25430;BME280;13360;48.152;-1.788;2023-09-18T06:14:30;102733.53;;;19.74;100.00
25430;BME280;13360;48.152;-1.788;2023-09-18T06:16:55;102749.19;;;19.75;100.00
25430;BME280;13360;48.152;-1.788;2023-09-18T06:19:20;102748.56;;;19.78;100.00
25430;BME280;13360;48.152;-1.788;2023-09-18T06:21:46;102759.19;;;19.81;100.00
25430;BME280;13360;48.152;-1.788;2023-09-18T06:24:11;102779.03;;;19.85;100.00
25430;BME280;13360;48.152;-1.788;2023-09-18T06:26:37;102795.75;;;19.90;100.00
25430;BME280;13360;48.152;-1.788;2023-09-18T06:29:02;102797.41;;;19.91;100.00
25430;BME280;13360;48.152;-1.788;2023-09-18T06:31:28;102799.91;;;19.92;100.00
25430;BME280;13360;48.152;-1.788;2023-09-18T06:33:53;102803.22;;;19.94;100.00
25430;BME280;13360;48.152;-1.788;2023-09-18T06:36:19;102824.81;;;19.94;100.00
25430;BME280;13360;48.152;-1.788;2023-09-18T06:38:44;102831.25;;;19.94;100.00
25430;BME280;13360;48.152;-1.788;2023-09-18T06:41:09;102849.75;;;19.95;100.00
25430;BME280;13360;48.152;-1.788;2023-09-18T06:43:34;102863.47;;;19.97;100.00
25430;BME280;13360;48.152;-1.788;2023-09-18T06:46:00;102881.13;;;19.97;100.00
25430;BME280;13360;48.152;-1.788;2023-09-18T06:48:25;102929.66;;;19.98;100.00
25430;BME280;13360;48.152;-1.788;2023-09-18T06:50:50;102940.59;;;19.99;100.00
25430;BME280;13360;48.152;-1.788;2023-09-18T06:53:15;102959.06;;;20.00;100.00
25430;BME280;13360;48.152;-1.788;2023-09-18T06:55:41;102975.59;;;20.02;100.00
25430;BME280;13360;48.152;-1.788;2023-09-18T06:58:06;102986.50;;;20.03;100.00
25430;BME280;13360;48.152;-1.788;2023-09-18T07:00:31;102997.13;;;20.06;100.00
25430;BME280;13360;48.152;-1.788;2023-09-18T07:02:57;102997.94;;;20.07;100.00
25430;BME280;13360;48.152;-1.788;2023-09-18T07:05:22;103010.00;;;20.07;100.00
25430;BME280;13360;48.152;-1.788;2023-09-18T07:07:47;103024.34;;;20.06;100.00
25430;BME280;13360;48.152;-1.788;2023-09-18T07:10:13;103049.88;;;20.04;100.00
25430;BME280;13360;48.152;-1.788;2023-09-18T07:12:38;103056.34;;;20.05;100.00
25430;BME280;13360;48.152;-1.788;2023-09-18T07:15:04;103072.03;;;20.06;100.00
25430;BME280;13360;48.152;-1.788;2023-09-18T07:17:30;103074.00;;;20.05;100.00
25430;BME280;13360;48.152;-1.788;2023-09-18T07:19:55;103070.06;;;20.06;100.00
25430;BME280;13360;48.152;-1.788;2023-09-18T07:22:20;103070.06;;;20.06;100.00
25430;BME280;13360;48.152;-1.788;2023-09-18T07:24:46;103086.88;;;20.06;100.00
25430;BME280;13360;48.152;-1.788;2023-09-18T07:27:11;103088.56;;;20.07;100.00
25430;BME280;13360;48.152;-1.788;2023-09-18T07:29:36;103121.91;;;20.09;100.00
25430;BME280;13360;48.152;-1.788;2023-09-18T07:32:02;103145.28;;;20.04;100.00
25430;BME280;13360;48.152;-1.788;2023-09-18T07:34:27;103160.97;;;20.05;100.00
25430;BME280;13360;48.152;-1.788;2023-09-18T07:36:52;103170.44;;;20.09;100.00
25430;BME280;13360;48.152;-1.788;2023-09-18T07:39:20;103141.94;;;20.02;100.00
25430;BME280;13360;48.152;-1.788;2023-09-18T07:41:45;103148.59;;;20.06;100.00
25430;BME280;13360;48.152;-1.788;2023-09-18T07:44:12;103150.81;;;20.09;100.00
25430;BME280;13360;48.152;-1.788;2023-09-18T07:46:37;103138.66;;;20.14;100.00
25430;BME280;13360;48.152;-1.788;2023-09-18T07:49:03;103115.59;;;20.17;100.00
25430;BME280;13360;48.152;-1.788;2023-09-18T07:51:28;103104.63;;;20.21;100.00
25430;BME280;13360;48.152;-1.788;2023-09-18T07:53:55;103094.44;;;20.25;100.00
25430;BME280;13360;48.152;-1.788;2023-09-18T07:56:20;103064.19;;;20.22;100.00
25430;BME280;13360;48.152;-1.788;2023-09-18T07:58:45;103055.16;;;20.25;100.00
25430;BME280;13360;48.152;-1.788;2023-09-18T08:01:12;103034.38;;;20.26;100.00
25430;BME280;13360;48.152;-1.788;2023-09-18T08:03:37;103024.81;;;20.27;100.00
25430;BME280;13360;48.152;-1.788;2023-09-18T08:06:02;103002.88;;;20.29;100.00
25430;BME280;13360;48.152;-1.788;2023-09-18T08:08:29;102989.69;;;20.29;100.00
25430;BME280;13360;48.152;-1.788;2023-09-18T08:10:56;102970.78;;;20.35;100.00
25430;BME280;13360;48.152;-1.788;2023-09-18T08:13:22;102978.53;;;20.43;100.00
25430;BME280;13360;48.152;-1.788;2023-09-18T08:15:48;102971.66;;;20.49;100.00
25430;BME280;13360;48.152;-1.788;2023-09-18T08:18:13;102957.84;;;20.53;100.00
25430;BME280;13360;48.152;-1.788;2023-09-18T08:20:42;102945.16;;;20.55;100.00
25430;BME280;13360;48.152;-1.788;2023-09-18T08:23:08;102935.78;;;20.60;100.00
25430;BME280;13360;48.152;-1.788;2023-09-18T08:25:33;102923.72;;;20.59;100.00
25430;BME280;13360;48.152;-1.788;2023-09-18T08:27:58;102895.97;;;20.58;100.00
25430;BME280;13360;48.152;-1.788;2023-09-18T08:30:23;102911.06;;;20.62;100.00
25430;BME280;13360;48.152;-1.788;2023-09-18T08:32:49;102903.97;;;20.64;100.00
25430;BME280;13360;48.152;-1.788;2023-09-18T08:35:14;102891.59;;;20.65;100.00
25430;BME280;13360;48.152;-1.788;2023-09-18T08:37:42;102876.72;;;20.65;100.00
25430;BME280;13360;48.152;-1.788;2023-09-18T08:40:11;102866.13;;;20.62;100.00
25430;BME280;13360;48.152;-1.788;2023-09-18T08:42:38;102863.53;;;20.65;100.00
25430;BME280;13360;48.152;-1.788;2023-09-18T08:45:08;102861.22;;;20.67;100.00
25430;BME280;13360;48.152;-1.788;2023-09-18T08:47:34;102853.00;;;20.71;100.00
25430;BME280;13360;48.152;-1.788;2023-09-18T08:50:00;102835.84;;;20.73;100.00
25430;BME280;13360;48.152;-1.788;2023-09-18T08:52:25;102822.63;;;20.73;100.00
25430;BME280;13360;48.152;-1.788;2023-09-18T08:54:51;102803.59;;;20.70;100.00
25430;BME280;13360;48.152;-1.788;2023-09-18T08:57:16;102806.41;;;20.70;100.00
25430;BME280;13360;48.152;-1.788;2023-09-18T08:59:42;102793.72;;;20.73;100.00
25430;BME280;13360;48.152;-1.788;2023-09-18T09:02:08;102787.59;;;20.70;100.00
25430;BME280;13360;48.152;-1.788;2023-09-18T09:04:36;102763.28;;;20.66;100.00
25430;BME280;13360;48.152;-1.788;2023-09-18T09:07:02;102716.88;;;20.68;100.00
25430;BME280;13360;48.152;-1.788;2023-09-18T09:09:27;102714.59;;;20.70;100.00
25430;BME280;13360;48.152;-1.788;2023-09-18T09:11:53;102732.44;;;20.75;100.00
25430;BME280;13360;48.152;-1.788;2023-09-18T09:14:18;102731.81;;;20.78;100.00
25430;BME280;13360;48.152;-1.788;2023-09-18T09:16:50;102724.72;;;20.80;100.00
25430;BME280;13360;48.152;-1.788;2023-09-18T09:19:18;102728.56;;;20.84;100.00
25430;BME280;13360;48.152;-1.788;2023-09-18T09:21:52;102734.06;;;20.89;100.00
25430;BME280;13360;48.152;-1.788;2023-09-18T09:24:19;102729.66;;;20.97;100.00
25430;BME280;13360;48.152;-1.788;2023-09-18T09:27:00;102737.31;;;21.05;100.00
25430;BME280;13360;48.152;-1.788;2023-09-18T09:29:25;102724.94;;;21.06;100.00
25430;BME280;13360;48.152;-1.788;2023-09-18T09:31:51;102721.78;;;21.08;100.00
25430;BME280;13360;48.152;-1.788;2023-09-18T09:34:25;102717.16;;;21.03;100.00
25430;BME280;13360;48.152;-1.788;2023-09-18T09:36:55;102712.16;;;21.00;100.00
25430;BME280;13360;48.152;-1.788;2023-09-18T09:39:20;102748.00;;;20.81;100.00
25430;BME280;13360;48.152;-1.788;2023-09-18T09:41:47;102786.50;;;20.80;100.00
25430;BME280;13360;48.152;-1.788;2023-09-18T09:44:13;102786.50;;;20.80;100.00
25430;BME280;13360;48.152;-1.788;2023-09-18T09:46:44;102799.19;;;20.78;100.00
25430;BME280;13360;48.152;-1.788;2023-09-18T09:49:10;102825.63;;;20.77;100.00
25430;BME280;13360;48.152;-1.788;2023-09-18T09:51:35;102872.31;;;20.86;100.00
25430;BME280;13360;48.152;-1.788;2023-09-18T09:54:01;102904.44;;;20.94;100.00
25430;BME280;13360;48.152;-1.788;2023-09-18T09:59:10;102975.06;;;21.15;100.00
25430;BME280;13360;48.152;-1.788;2023-09-18T10:01:37;102962.03;;;21.19;100.00
25430;BME280;13360;48.152;-1.788;2023-09-18T10:04:10;102920.22;;;21.31;100.00
25430;BME280;13360;48.152;-1.788;2023-09-18T10:06:36;102908.59;;;21.46;100.00
25430;BME280;13360;48.152;-1.788;2023-09-18T10:09:03;102858.88;;;21.55;100.00
25430;BME280;13360;48.152;-1.788;2023-09-18T10:11:30;102812.25;;;21.63;100.00
25430;BME280;13360;48.152;-1.788;2023-09-18T10:14:00;102804.72;;;21.72;100.00
25430;BME280;13360;48.152;-1.788;2023-09-18T10:16:26;102791.69;;;21.85;100.00
25430;BME280;13360;48.152;-1.788;2023-09-18T10:21:41;102721.75;;;22.01;100.00
25430;BME280;13360;48.152;-1.788;2023-09-18T10:27:05;102661.66;;;21.88;100.00
25430;BME280;13360;48.152;-1.788;2023-09-18T10:29:34;102631.84;;;21.78;100.00
25430;BME280;13360;48.152;-1.788;2023-09-18T10:32:00;102593.94;;;21.67;100.00
25430;BME280;13360;48.152;-1.788;2023-09-18T10:34:27;102586.13;;;21.55;100.00
25430;BME280;13360;48.152;-1.788;2023-09-18T10:36:54;102582.81;;;21.53;100.00
25430;BME280;13360;48.152;-1.788;2023-09-18T10:39:20;102575.72;;;21.56;100.00
25430;BME280;13360;48.152;-1.788;2023-09-18T10:41:49;102564.31;;;21.61;100.00
25430;BME280;13360;48.152;-1.788;2023-09-18T10:44:15;102538.34;;;21.64;100.00
25430;BME280;13360;48.152;-1.788;2023-09-18T10:46:44;102532.09;;;21.76;100.00
25430;BME280;13360;48.152;-1.788;2023-09-18T10:49:09;102521.34;;;21.86;100.00
25430;BME280;13360;48.152;-1.788;2023-09-18T10:51:35;102476.66;;;21.94;100.00
25430;BME280;13360;48.152;-1.788;2023-09-18T10:54:05;102434.28;;;21.99;100.00
25430;BME280;13360;48.152;-1.788;2023-09-18T10:56:32;102411.47;;;22.09;100.00
25430;BME280;13360;48.152;-1.788;2023-09-18T10:58:58;102372.91;;;22.09;100.00
25430;BME280;13360;48.152;-1.788;2023-09-18T11:01:24;102356.16;;;22.13;100.00
25430;BME280;13360;48.152;-1.788;2023-09-18T11:03:52;102303.47;;;22.22;100.00
25430;BME280;13360;48.152;-1.788;2023-09-18T11:06:17;102270.66;;;22.26;100.00
25430;BME280;13360;48.152;-1.788;2023-09-18T11:08:46;102220.69;;;22.23;100.00
25430;BME280;13360;48.152;-1.788;2023-09-18T11:11:12;102162.63;;;22.18;100.00
25430;BME280;13360;48.152;-1.788;2023-09-18T11:13:50;102129.47;;;22.24;100.00
25430;BME280;13360;48.152;-1.788;2023-09-18T11:16:32;102125.97;;;22.27;100.00
25430;BME280;13360;48.152;-1.788;2023-09-18T11:21:33;102065.50;;;22.33;100.00
25430;BME280;13360;48.152;-1.788;2023-09-18T11:26:23;101974.38;;;22.38;100.00
25430;BME280;13360;48.152;-1.788;2023-09-18T11:28:49;101910.34;;;22.35;100.00
25430;BME280;13360;48.152;-1.788;2023-09-18T11:31:15;101904.84;;;22.38;100.00
25430;BME280;13360;48.152;-1.788;2023-09-18T11:33:41;101850.19;;;22.39;100.00
25430;BME280;13360;48.152;-1.788;2023-09-18T11:36:11;101767.84;;;22.42;100.00
25430;BME280;13360;48.152;-1.788;2023-09-18T11:38:51;101746.75;;;22.36;100.00
25430;BME280;13360;48.152;-1.788;2023-09-18T11:41:22;101680.50;;;22.27;100.00
25430;BME280;13360;48.152;-1.788;2023-09-18T11:43:47;101689.53;;;22.32;100.00
25430;BME280;13360;48.152;-1.788;2023-09-18T11:46:13;101693.28;;;22.36;100.00
25430;BME280;13360;48.152;-1.788;2023-09-18T11:48:43;101683.91;;;22.32;100.00
25430;BME280;13360;48.152;-1.788;2023-09-18T11:51:08;101669.84;;;22.20;100.00
25430;BME280;13360;48.152;-1.788;2023-09-18T11:53:36;101655.81;;;22.08;100.00
25430;BME280;13360;48.152;-1.788;2023-09-18T11:56:03;101697.13;;;21.95;100.00
25430;BME280;13360;48.152;-1.788;2023-09-18T11:58:28;101756.78;;;21.88;100.00
25430;BME280;13360;48.152;-1.788;2023-09-18T12:00:53;101825.34;;;21.96;100.00
25430;BME280;13360;48.152;-1.788;2023-09-18T12:03:20;101862.31;;;22.07;100.00
25430;BME280;13360;48.152;-1.788;2023-09-18T12:05:58;101875.47;;;22.15;100.00
25430;BME280;13360;48.152;-1.788;2023-09-18T12:08:24;101889.19;;;22.16;100.00
25430;BME280;13360;48.152;-1.788;2023-09-18T12:10:53;101868.34;;;22.17;100.00
25430;BME280;13360;48.152;-1.788;2023-09-18T12:13:18;101860.94;;;22.13;100.00
25430;BME280;13360;48.152;-1.788;2023-09-18T12:15:44;101879.13;;;22.15;100.00
25430;BME280;13360;48.152;-1.788;2023-09-18T12:18:09;101859.78;;;22.14;100.00
25430;BME280;13360;48.152;-1.788;2023-09-18T12:20:36;101852.16;;;22.14;100.00
25430;BME280;13360;48.152;-1.788;2023-09-18T12:23:02;101808.41;;;22.05;100.00
25430;BME280;13360;48.152;-1.788;2023-09-18T12:25:27;101812.03;;;22.05;100.00
25430;BME280;13360;48.152;-1.788;2023-09-18T12:27:53;101832.28;;;21.99;100.00
25430;BME280;13360;48.152;-1.788;2023-09-18T12:30:19;101827.88;;;22.10;100.00
25430;BME280;13360;48.152;-1.788;2023-09-18T12:32:45;101770.22;;;22.16;100.00
25430;BME280;13360;48.152;-1.788;2023-09-18T12:35:13;101734.09;;;22.18;100.00
25430;BME280;13360;48.152;-1.788;2023-09-18T12:37:39;101712.53;;;22.22;100.00